Time;durP1;ratioP1;P1;durP2;ratioP2;P2;SDS_P1;SDS_P2;PMS_P1;PMS_P2;Temp;Humidity;BMP_temperature;BMP_pressure;BME280_temperature;BME280_humidity;BME280_pressure;Samples;Min_cycle;Max_cycle;Signal;HPM_P1;HPM_P2
2021/09/30 00:02:15;;;;;;;0.70;0.60;;;;;;;9.77;100.00;-20948.03;4983221;28;20445;-72
2021/09/30 00:04:42;;;;;;;0.70;0.60;;;;;;;9.78;100.00;-20948.31;4974154;28;20469;-73
2021/09/30 00:07:09;;;;;;;0.70;0.60;;;;;;;9.64;100.00;-20944.56;4976175;28;20440;-71
2021/09/30 00:09:42;;;;;;;0.70;0.60;;;;;;;9.66;100.00;-20945.13;4976712;28;20414;-72
2021/09/30 00:12:15;;;;;;;0.70;0.70;;;;;;;9.53;100.00;-20941.53;4977032;28;20443;-72
2021/09/30 00:14:50;;;;;;;0.70;0.60;;;;;;;9.50;100.00;-20940.69;4977415;28;20420;-72
2021/09/30 00:34:01;;;;;;;0.70;0.70;;;;;;;9.30;100.00;-20935.16;4976795;28;20795;-72
2021/09/30 00:47:48;;;;;;;0.70;0.60;;;;;;;9.48;100.00;-20940.13;4974623;28;20483;-71
2021/09/30 00:50:28;;;;;;;0.70;0.60;;;;;;;9.51;100.00;-20940.97;4959839;28;20544;-72
2021/09/30 01:46:21;;;;;;;0.70;0.60;;;;;;;9.03;100.00;-20927.94;4974539;28;20478;-72
2021/09/30 02:28:14;;;;;;;0.70;0.60;;;;;;;8.88;100.00;-20923.94;4972273;28;20444;-72
2021/09/30 02:59:09;;;;;;;0.70;0.60;;;;;;;9.07;100.00;-20929.06;4973213;28;20462;-72
2021/09/30 03:01:45;;;;;;;0.70;0.60;;;;;;;9.14;100.00;-20930.84;4969940;28;20453;-71
2021/09/30 03:04:14;;;;;;;0.70;0.60;;;;;;;9.19;100.00;-20932.38;4954093;28;20441;-72
2021/09/30 03:06:44;;;;;;;0.70;0.60;;;;;;;9.26;100.00;-20934.19;4959138;28;20459;-72
2021/09/30 03:09:18;;;;;;;0.67;0.50;;;;;;;9.19;100.00;-20932.38;4956843;28;20471;-72
2021/09/30 03:11:50;;;;;;;0.70;0.60;;;;;;;9.16;100.00;-20931.53;4972963;28;20452;-72
2021/09/30 03:14:19;;;;;;;0.70;0.60;;;;;;;9.15;100.00;-20931.13;4965613;28;20467;-72
2021/09/30 03:16:50;;;;;;;0.70;0.60;;;;;;;9.08;100.00;-20929.31;4956770;28;20455;-72
2021/09/30 03:24:42;;;;;;;0.70;0.60;;;;;;;8.93;100.00;-20925.16;4994386;28;20500;-72
2021/09/30 03:27:09;;;;;;;0.70;0.60;;;;;;;8.89;100.00;-20924.19;4972050;28;20448;-72
2021/09/30 03:29:36;;;;;;;0.70;0.60;;;;;;;8.87;100.00;-20923.50;4965528;28;20447;-72
2021/09/30 03:32:04;;;;;;;0.70;0.60;;;;;;;8.79;100.00;-20921.44;4968627;28;20495;-71
2021/09/30 03:35:00;;;;;;;0.70;0.60;;;;;;;8.70;100.00;-20919.06;4955853;28;20523;-72
2021/09/30 03:37:28;;;;;;;0.70;0.60;;;;;;;8.60;100.00;-20916.28;4999336;28;20505;-72
2021/09/30 03:39:56;;;;;;;0.70;0.60;;;;;;;8.43;100.00;-20911.59;4975970;28;20492;-72
2021/09/30 03:42:23;;;;;;;0.70;0.60;;;;;;;8.47;100.00;-20912.69;4976496;28;20897;-72
2021/09/30 03:44:56;;;;;;;0.70;0.60;;;;;;;8.50;100.00;-20913.53;4976897;28;20447;-72
2021/09/30 03:47:24;;;;;;;0.70;0.60;;;;;;;8.42;100.00;-20911.31;4973077;28;20509;-72
2021/09/30 03:49:57;;;;;;;0.70;0.60;;;;;;;8.50;100.00;-20913.53;4990237;28;20804;-72
2021/09/30 03:53:13;;;;;;;0.70;0.60;;;;;;;8.43;100.00;-20911.59;4990141;28;20483;-72
2021/09/30 04:00:34;;;;;;;0.70;0.60;;;;;;;7.96;100.00;-20898.81;4988940;28;20464;-72
2021/09/30 04:03:02;;;;;;;0.70;0.60;;;;;;;7.87;100.00;-20896.31;4971566;28;20454;-72
2021/09/30 04:05:33;;;;;;;0.70;0.60;;;;;;;7.92;100.00;-20897.72;4990530;28;20459;-72
2021/09/30 04:08:00;;;;;;;0.70;0.60;;;;;;;8.24;100.00;-20906.59;4974626;28;20820;-72
2021/09/30 04:10:28;;;;;;;0.70;0.60;;;;;;;8.49;100.00;-20913.25;4956629;28;20443;-72
2021/09/30 04:12:55;;;;;;;0.70;0.60;;;;;;;8.55;100.00;-20914.91;4974583;28;20443;-72
2021/09/30 04:15:22;;;;;;;0.70;0.60;;;;;;;8.56;100.00;-20915.06;4974687;28;20979;-72
2021/09/30 04:17:50;;;;;;;0.70;0.60;;;;;;;8.57;100.00;-20915.31;4971621;28;20479;-72
2021/09/30 04:20:23;;;;;;;0.70;0.60;;;;;;;8.67;100.00;-20918.25;4956846;28;20451;-72
2021/09/30 04:22:56;;;;;;;0.70;0.60;;;;;;;8.73;100.00;-20919.63;4956786;28;20501;-72
2021/09/30 04:25:24;;;;;;;0.70;0.60;;;;;;;8.71;100.00;-20919.34;4956923;29;20442;-72
2021/09/30 04:27:53;;;;;;;0.70;0.60;;;;;;;8.74;100.00;-20920.03;4956997;28;21008;-72
2021/09/30 04:30:20;;;;;;;0.70;0.60;;;;;;;8.74;100.00;-20919.91;4956601;29;20865;-71
2021/09/30 04:33:11;;;;;;;0.70;0.60;;;;;;;8.76;100.00;-20920.59;4972818;28;20471;-71
2021/09/30 04:35:38;;;;;;;0.70;0.60;;;;;;;8.81;100.00;-20921.97;4975552;28;20546;-71
2021/09/30 04:38:07;;;;;;;0.70;0.60;;;;;;;8.93;100.00;-20925.16;4976392;28;20478;-72
2021/09/30 04:40:34;;;;;;;0.70;0.60;;;;;;;9.01;100.00;-20927.38;4976115;28;20436;-72
2021/09/30 04:43:04;;;;;;;0.70;0.60;;;;;;;9.05;100.00;-20928.50;4971388;28;20448;-72
2021/09/30 04:45:34;;;;;;;0.70;0.60;;;;;;;9.04;100.00;-20928.22;4957174;28;20934;-72
2021/09/30 04:48:16;;;;;;;0.70;0.60;;;;;;;8.96;100.00;-20926.00;4972907;28;20973;-72
2021/09/30 04:50:47;;;;;;;0.70;0.60;;;;;;;8.99;100.00;-20926.84;4956249;28;20413;-72
2021/09/30 04:53:14;;;;;;;0.70;0.70;;;;;;;8.94;100.00;-20925.44;4972393;28;20464;-72
2021/09/30 04:55:41;;;;;;;0.80;0.80;;;;;;;8.95;100.00;-20925.72;4973121;28;20485;-71
2021/09/30 04:58:09;;;;;;;0.70;0.60;;;;;;;8.86;100.00;-20923.38;4958310;28;20467;-72
2021/09/30 05:00:38;;;;;;;0.70;0.60;;;;;;;8.82;100.00;-20922.13;4975619;28;20797;-72
2021/09/30 05:03:17;;;;;;;0.70;0.60;;;;;;;8.81;100.00;-20921.84;4975426;28;20805;-71
2021/09/30 05:05:43;;;;;;;0.70;0.57;;;;;;;8.82;100.00;-20922.25;4991369;28;20447;-72
2021/09/30 05:08:12;;;;;;;0.70;0.60;;;;;;;8.79;100.00;-20921.28;4975539;28;20494;-73
2021/09/30 05:10:44;;;;;;;0.70;0.60;;;;;;;8.80;100.00;-20921.72;4975484;28;20434;-71
2021/09/30 05:13:18;;;;;;;0.70;0.60;;;;;;;8.82;100.00;-20922.25;4976244;28;20456;-73
2021/09/30 05:15:47;;;;;;;0.70;0.60;;;;;;;8.95;100.00;-20925.72;4975157;28;20793;-71
2021/09/30 05:18:33;;;;;;;0.70;0.70;;;;;;;9.06;100.00;-20928.78;4975320;28;20459;-71
2021/09/30 05:21:02;;;;;;;0.70;0.60;;;;;;;9.17;100.00;-20931.69;4974076;28;20825;-71
2021/09/30 05:23:31;;;;;;;0.70;0.60;;;;;;;9.25;100.00;-20933.75;4975047;28;20559;-72
2021/09/30 05:25:58;;;;;;;0.70;0.60;;;;;;;9.32;100.00;-20935.69;4959185;28;20446;-72
2021/09/30 05:28:26;;;;;;;0.70;0.60;;;;;;;9.35;100.00;-20936.69;4948247;29;20443;-72
2021/09/30 05:30:53;;;;;;;0.70;0.60;;;;;;;9.37;100.00;-20937.22;4955605;28;20468;-72
2021/09/30 05:33:41;;;;;;;0.70;0.60;;;;;;;9.29;100.00;-20935.00;4955928;28;20515;-72
2021/09/30 05:36:08;;;;;;;0.80;0.70;;;;;;;9.32;100.00;-20935.69;4955230;29;20434;-72
2021/09/30 05:38:35;;;;;;;0.70;0.60;;;;;;;9.25;100.00;-20933.75;4963498;28;20567;-72
2021/09/30 05:41:03;;;;;;;0.70;0.60;;;;;;;9.12;100.00;-20930.28;4974979;28;20442;-72
2021/09/30 05:43:36;;;;;;;0.70;0.60;;;;;;;9.13;100.00;-20930.56;4974924;28;20461;-72
2021/09/30 05:46:04;;;;;;;0.70;0.60;;;;;;;9.18;100.00;-20932.09;4958540;28;20430;-71
2021/09/30 05:48:31;;;;;;;0.70;0.60;;;;;;;9.15;100.00;-20931.13;4958669;28;20444;-72
2021/09/30 05:50:59;;;;;;;0.70;0.50;;;;;;;9.13;100.00;-20930.56;4957626;28;20488;-72
2021/09/30 05:53:41;;;;;;;0.70;0.60;;;;;;;9.12;100.00;-20930.44;4974411;28;20516;-72
2021/09/30 05:56:28;;;;;;;0.70;0.60;;;;;;;9.09;100.00;-20929.47;4974403;28;20443;-72
2021/09/30 05:58:57;;;;;;;0.70;0.70;;;;;;;9.09;100.00;-20929.47;4974434;28;20571;-72
2021/09/30 06:12:15;;;;;;;0.70;0.60;;;;;;;9.18;100.00;-20932.09;4974300;28;20447;-72
2021/09/30 06:14:45;;;;;;;0.70;0.60;;;;;;;9.29;100.00;-20934.88;4975698;28;20836;-73
2021/09/30 06:17:12;;;;;;;0.70;0.60;;;;;;;9.25;100.00;-20933.75;4974798;28;20466;-72
2021/09/30 06:19:45;;;;;;;0.70;0.60;;;;;;;9.23;100.00;-20933.22;4973715;28;20460;-72
2021/09/30 06:22:14;;;;;;;0.90;0.80;;;;;;;9.27;100.00;-20934.44;4957999;28;20439;-72
2021/09/30 06:24:42;;;;;;;0.70;0.60;;;;;;;9.33;100.00;-20935.97;4974430;28;20803;-71
2021/09/30 06:27:29;;;;;;;0.70;0.70;;;;;;;9.36;100.00;-20936.81;4969870;28;20478;-72
2021/09/30 06:29:59;;;;;;;0.70;0.60;;;;;;;9.44;100.00;-20939.03;4971805;28;20994;-72
2021/09/30 06:32:30;;;;;;;0.70;0.60;;;;;;;9.49;100.00;-20940.41;4973484;28;20463;-72
2021/09/30 06:35:17;;;;;;;0.70;0.60;;;;;;;9.60;100.00;-20943.47;4974704;28;20500;-72
2021/09/30 06:37:50;;;;;;;0.70;0.60;;;;;;;9.61;100.00;-20943.75;4957943;28;20559;-72
2021/09/30 06:40:18;;;;;;;0.70;0.60;;;;;;;9.71;100.00;-20946.38;4973920;28;20944;-72
2021/09/30 06:42:47;;;;;;;0.70;0.60;;;;;;;9.78;100.00;-20948.16;4973465;28;20443;-72
2021/09/30 06:45:34;;;;;;;0.70;0.60;;;;;;;9.90;100.00;-20951.50;4974628;28;20495;-72
2021/09/30 06:48:21;;;;;;;0.70;0.60;;;;;;;9.95;100.00;-20952.75;4973485;28;20513;-72
2021/09/30 06:50:53;;;;;;;0.70;0.63;;;;;;;9.95;100.00;-20952.88;4973751;28;20529;-72
2021/09/30 06:53:28;;;;;;;0.70;0.60;;;;;;;10.01;100.00;-20954.53;4973657;28;20885;-72
2021/09/30 06:56:16;;;;;;;0.70;0.60;;;;;;;10.01;100.00;-20954.53;4974197;28;20433;-71
2021/09/30 06:59:35;;;;;;;0.70;0.60;;;;;;;10.05;100.00;-20955.66;4963102;28;20485;-72
2021/09/30 07:02:23;;;;;;;0.70;0.60;;;;;;;10.11;100.00;-20957.31;4971479;28;20490;-71
2021/09/30 07:05:12;;;;;;;0.70;0.70;;;;;;;10.18;100.00;-20959.09;4987110;28;20448;-72
2021/09/30 07:07:59;;;;;;;0.70;0.60;;;;;;;10.16;100.00;-20958.69;4959441;28;20572;-72
2021/09/30 07:10:26;;;;;;;0.70;0.60;;;;;;;10.22;100.00;-20960.06;4957377;28;20452;-71
2021/09/30 07:12:53;;;;;;;0.70;0.60;;;;;;;10.25;100.00;-20961.03;4974213;28;20535;-72
2021/09/30 07:15:20;;;;;;;0.70;0.60;;;;;;;10.36;100.00;-20963.94;4972326;28;20552;-72
2021/09/30 07:17:51;;;;;;;0.70;0.60;;;;;;;10.43;100.00;-20965.88;4973451;28;20486;-72
2021/09/30 07:20:19;;;;;;;0.73;0.70;;;;;;;10.50;100.00;-20967.81;4974175;28;20970;-72
2021/09/30 07:22:46;;;;;;;0.90;0.90;;;;;;;10.48;100.00;-20967.28;4973755;28;20466;-72
2021/09/30 07:25:13;;;;;;;0.70;0.60;;;;;;;10.55;100.00;-20969.22;4974462;28;20417;-73
2021/09/30 07:27:43;;;;;;;0.70;0.70;;;;;;;10.62;100.00;-20971.16;4973784;28;20489;-73
2021/09/30 07:30:12;;;;;;;0.70;0.60;;;;;;;10.80;100.00;-20975.97;4972712;28;20444;-73
2021/09/30 07:32:41;;;;;;;0.70;0.60;;;;;;;10.94;100.00;-20979.72;4963126;28;20450;-74
2021/09/30 07:35:10;;;;;;;0.70;0.60;;;;;;;11.06;100.00;-20983.03;4969625;28;20973;-73
2021/09/30 07:37:37;;;;;;;0.70;0.60;;;;;;;11.27;100.00;-20988.56;4972745;28;20873;-73
2021/09/30 07:40:05;;;;;;;0.70;0.60;;;;;;;11.45;100.00;-20993.41;4972969;28;20909;-72
2021/09/30 07:42:32;;;;;;;0.70;0.60;;;;;;;11.63;100.00;-20998.25;4973059;28;20549;-73
2021/09/30 07:45:01;;;;;;;0.73;0.70;;;;;;;11.72;100.00;-21000.72;4972674;28;20452;-72
2021/09/30 07:47:28;;;;;;;0.73;0.70;;;;;;;12.01;100.00;-21008.59;4972794;28;20445;-72
2021/09/30 07:49:55;;;;;;;0.70;0.60;;;;;;;12.05;100.00;-21009.84;4973843;28;20784;-72
2021/09/30 07:52:23;;;;;;;0.70;0.60;;;;;;;12.28;100.00;-21016.06;4972770;28;20440;-73
2021/09/30 07:54:50;;;;;;;0.70;0.60;;;;;;;12.43;100.00;-21020.06;4973670;28;20497;-73
2021/09/30 07:57:17;;;;;;;0.70;0.60;;;;;;;12.64;100.00;-21025.59;4974383;28;20508;-73
2021/09/30 07:59:48;;;;;;;0.80;0.70;;;;;;;12.57;100.00;-21023.94;4970784;28;20469;-73
2021/09/30 08:02:15;;;;;;;0.70;0.60;;;;;;;12.68;100.00;-21026.69;4973938;28;20951;-73
2021/09/30 08:04:42;;;;;;;0.70;0.70;;;;;;;12.81;100.00;-21030.28;4988561;28;20462;-73
2021/09/30 08:07:10;;;;;;;0.70;0.60;;;;;;;12.70;100.00;-21027.22;4972892;28;20956;-72
2021/09/30 08:09:38;;;;;;;0.80;0.80;;;;;;;12.73;100.00;-21028.06;4972403;28;20784;-72
2021/09/30 08:12:10;;;;;;;0.70;0.60;;;;;;;12.81;100.00;-21030.28;4971960;28;20442;-72
2021/09/30 08:14:37;;;;;;;0.70;0.70;;;;;;;13.09;100.00;-21037.84;4973641;28;20453;-73
2021/09/30 08:17:05;;;;;;;0.73;0.70;;;;;;;13.61;100.00;-21051.91;4973022;28;20471;-73
2021/09/30 08:19:33;;;;;;;0.70;0.70;;;;;;;13.54;100.00;-21050.13;4974103;28;20491;-73
2021/09/30 08:22:02;;;;;;;0.70;0.70;;;;;;;13.59;100.00;-21051.22;4971875;28;20860;-71
2021/09/30 08:24:30;;;;;;;0.70;0.60;;;;;;;13.52;100.00;-21049.56;4969135;28;20467;-72
2021/09/30 08:26:59;;;;;;;0.70;0.60;;;;;;;13.83;100.00;-21057.84;4957735;28;20444;-73
2021/09/30 08:29:28;;;;;;;0.70;0.70;;;;;;;14.23;100.00;-21068.59;4957557;28;20512;-72
2021/09/30 08:31:54;;;;;;;0.70;0.60;;;;;;;14.41;100.00;-21073.53;4961617;28;20451;-72
2021/09/30 08:34:22;;;;;;;0.70;0.70;;;;;;;14.60;100.00;-21078.50;4976075;28;20435;-73
2021/09/30 08:36:48;;;;;;;0.70;0.60;;;;;;;14.56;100.00;-21077.41;4960095;28;20858;-72
2021/09/30 08:39:16;;;;;;;0.70;0.60;;;;;;;14.39;100.00;-21073.00;4977128;28;20569;-72
2021/09/30 08:41:43;;;;;;;0.70;0.70;;;;;;;14.35;100.00;-21071.88;4975727;28;20493;-72
2021/09/30 08:44:11;;;;;;;0.80;0.77;;;;;;;14.78;100.00;-21083.47;4976508;28;20501;-73
2021/09/30 08:46:39;;;;;;;0.80;0.70;;;;;;;14.70;100.00;-21081.25;4976622;28;20427;-72
2021/09/30 08:49:06;;;;;;;0.70;0.70;;;;;;;14.67;100.00;-21080.44;4975635;28;20482;-72
2021/09/30 08:51:36;;;;;;;1.03;0.93;;;;;;;15.08;100.00;-21091.44;4975389;28;20438;-72
2021/09/30 08:54:03;;;;;;;0.80;0.60;;;;;;;15.56;100.00;-21104.50;4975644;28;20562;-71
2021/09/30 08:56:33;;;;;;;0.70;0.60;;;;;;;16.00;100.00;-21116.19;4956282;29;20448;-71
2021/09/30 08:59:14;;;;;;;0.80;0.60;;;;;;;16.28;100.00;-21123.88;4968475;28;20464;-72
2021/09/30 09:02:02;;;;;;;0.93;0.83;;;;;;;16.73;100.00;-21135.97;4976270;28;20606;-73
2021/09/30 09:04:52;;;;;;;0.70;0.60;;;;;;;17.17;100.00;-21147.75;4975598;28;20531;-73
2021/09/30 09:07:23;;;;;;;0.73;0.60;;;;;;;17.96;100.00;-21168.88;4975608;28;20424;-72
2021/09/30 09:10:01;;;;;;;0.80;0.70;;;;;;;18.34;100.00;-21179.28;4976615;28;20398;-74
2021/09/30 09:12:31;;;;;;;0.70;0.60;;;;;;;18.75;100.00;-21190.09;4974729;28;20451;-73
2021/09/30 09:15:00;;;;;;;0.70;0.60;;;;;;;19.03;100.00;-21197.63;4976810;28;20420;-73
2021/09/30 09:17:28;;;;;;;0.70;0.60;;;;;;;18.81;100.00;-21191.88;4971943;28;20468;-73
2021/09/30 09:20:01;;;;;;;0.70;0.60;;;;;;;18.33;100.00;-21179.00;4957063;28;20480;-72
2021/09/30 09:22:30;;;;;;;0.70;0.60;;;;;;;17.99;100.00;-21169.69;4971869;28;20468;-73
2021/09/30 09:25:04;;;;;;;0.70;0.60;;;;;;;18.42;100.00;-21181.22;4956270;29;20769;-73
2021/09/30 09:27:45;;;;;;;0.70;0.50;;;;;;;19.37;100.00;-21206.66;4957062;29;20480;-73
2021/09/30 09:30:32;;;;;;;0.70;0.60;;;;;;;19.22;100.00;-21202.69;4987931;28;20443;-71
2021/09/30 09:33:11;;;;;;;0.70;0.60;;;;;;;18.40;100.00;-21180.78;4969851;28;20435;-73
2021/09/30 09:35:53;;;;;;;0.70;0.60;;;;;;;18.95;100.00;-21195.44;4976357;28;20430;-74
2021/09/30 09:38:23;;;;;;;0.73;0.63;;;;;;;19.57;100.00;-21212.13;4976360;28;20455;-73
2021/09/30 09:40:56;;;;;;;0.70;0.60;;;;;;;20.35;100.00;-21232.91;4974313;28;20467;-73
2021/09/30 09:43:28;;;;;;;0.70;0.60;;;;;;;20.74;100.00;-21243.56;4976219;28;20932;-73
2021/09/30 09:46:00;;;;;;;0.80;0.70;;;;;;;21.13;100.00;-21253.78;4974972;28;20840;-73
2021/09/30 09:48:31;;;;;;;0.70;0.53;;;;;;;19.40;100.00;-21207.63;4975686;28;20416;-73
2021/09/30 09:51:00;;;;;;;0.70;0.50;;;;;;;20.22;100.00;-21229.63;4976079;28;20420;-74
2021/09/30 09:53:29;;;;;;;0.70;0.50;;;;;;;20.10;100.00;-21226.34;4975783;28;20551;-73
2021/09/30 09:56:12;;;;;;;0.70;0.60;;;;;;;19.15;100.00;-21200.91;4973868;28;20810;-74
2021/09/30 09:58:44;;;;;;;0.70;0.60;;;;;;;18.09;100.00;-21172.44;4954919;28;20465;-74
2021/09/30 10:01:13;;;;;;;0.80;0.60;;;;;;;17.92;100.00;-21167.78;4956445;28;20436;-73
2021/09/30 10:03:50;;;;;;;0.70;0.67;;;;;;;18.39;100.00;-21180.38;4973683;28;20443;-73
2021/09/30 10:06:22;;;;;;;0.70;0.60;;;;;;;18.29;100.00;-21177.78;4975563;28;20543;-73
2021/09/30 10:08:50;;;;;;;0.70;0.60;;;;;;;17.93;100.00;-21168.06;4974207;28;20498;-72
2021/09/30 10:11:17;;;;;;;0.70;0.60;;;;;;;17.99;100.00;-21169.84;4975804;28;20416;-73
2021/09/30 10:13:46;;;;;;;0.70;0.60;;;;;;;18.04;100.00;-21171.22;4975371;28;20419;-72
2021/09/30 10:16:18;;;;;;;0.70;0.60;;;;;;;18.73;100.00;-21189.56;4975437;28;20929;-73
2021/09/30 10:18:54;;;;;;;0.70;0.60;;;;;;;18.38;100.00;-21180.13;4973667;28;20475;-73
2021/09/30 10:21:22;;;;;;;0.70;0.60;;;;;;;18.74;100.00;-21189.84;4975018;28;20416;-74
2021/09/30 10:23:53;;;;;;;0.80;0.70;;;;;;;19.12;100.00;-21200.09;4973027;28;20451;-74
2021/09/30 10:26:34;;;;;;;0.70;0.70;;;;;;;19.15;100.00;-21200.78;4975209;28;20447;-74
2021/09/30 10:29:07;;;;;;;0.80;0.80;;;;;;;17.62;100.00;-21159.97;4974952;28;20394;-74
2021/09/30 10:31:37;;;;;;;0.80;0.60;;;;;;;17.29;100.00;-21151.06;4972619;28;20402;-73
2021/09/30 10:34:06;;;;;;;0.70;0.60;;;;;;;17.25;100.00;-21149.97;4954330;29;20887;-74
2021/09/30 10:36:39;;;;;;;0.80;0.70;;;;;;;18.32;100.00;-21178.75;4954746;29;20415;-74
2021/09/30 10:39:17;;;;;;;0.70;0.70;;;;;;;18.32;100.00;-21178.75;4954434;28;20456;-73
2021/09/30 10:41:45;;;;;;;0.80;0.70;;;;;;;18.97;100.00;-21196.00;4955643;28;20434;-72
2021/09/30 10:44:13;;;;;;;0.70;0.60;;;;;;;19.07;100.00;-21198.72;4989644;28;20503;-73
2021/09/30 10:46:50;;;;;;;0.70;0.60;;;;;;;19.54;100.00;-21211.31;4989795;28;20443;-73
2021/09/30 10:49:33;;;;;;;0.70;0.60;;;;;;;19.90;100.00;-21220.88;4973748;28;20415;-73
2021/09/30 10:52:25;;;;;;;0.70;0.60;;;;;;;20.96;100.00;-21249.44;4973808;28;20746;-73
2021/09/30 10:54:55;;;;;;;0.70;0.60;;;;;;;20.15;100.00;-21227.56;4974820;28;20499;-73
2021/09/30 10:57:36;;;;;;;1.20;1.10;;;;;;;20.18;100.00;-21228.53;4974931;28;20495;-74
2021/09/30 11:00:05;;;;;;;0.80;0.70;;;;;;;20.69;100.00;-21242.19;4974492;28;20471;-73
2021/09/30 11:03:13;;;;;;;0.70;0.60;;;;;;;20.60;100.00;-21239.72;4974372;28;20436;-73
2021/09/30 11:05:44;;;;;;;0.80;0.70;;;;;;;19.82;100.00;-21218.69;4973120;28;20888;-73
2021/09/30 11:08:21;;;;;;;0.70;0.60;;;;;;;18.68;100.00;-21188.19;4968932;28;20531;-73
2021/09/30 11:11:11;;;;;;;0.70;0.60;;;;;;;18.67;100.00;-21187.91;4954460;29;20391;-73
2021/09/30 11:13:41;;;;;;;0.73;0.70;;;;;;;19.30;100.00;-21205.03;4955466;28;20506;-73
2021/09/30 11:16:10;;;;;;;0.80;0.70;;;;;;;19.33;100.00;-21205.56;4960125;28;20456;-73
2021/09/30 11:18:42;;;;;;;0.70;0.60;;;;;;;19.07;100.00;-21198.72;4973104;28;20417;-73
2021/09/30 11:21:43;;;;;;;0.73;0.70;;;;;;;18.96;100.00;-21195.72;4974963;28;20543;-73
2021/09/30 11:24:21;;;;;;;0.70;0.60;;;;;;;18.63;100.00;-21186.97;4974400;28;20510;-73
2021/09/30 11:27:19;;;;;;;0.80;0.60;;;;;;;18.13;100.00;-21173.41;4975092;28;20457;-73
2021/09/30 11:29:48;;;;;;;0.80;0.70;;;;;;;18.56;100.00;-21185.03;4973423;28;20494;-74
2021/09/30 11:32:19;;;;;;;0.77;0.60;;;;;;;17.99;100.00;-21169.69;4969664;28;20515;-73
2021/09/30 11:34:50;;;;;;;0.80;0.60;;;;;;;17.70;100.00;-21162.03;4957349;28;20475;-73
2021/09/30 11:37:19;;;;;;;0.70;0.70;;;;;;;17.88;100.00;-21166.69;4989538;28;20453;-73
2021/09/30 11:39:49;;;;;;;0.80;0.70;;;;;;;18.06;100.00;-21171.75;4974262;28;20435;-73
2021/09/30 11:42:17;;;;;;;0.70;0.60;;;;;;;18.11;100.00;-21173.00;4973492;28;20415;-73
2021/09/30 11:44:58;;;;;;;0.80;0.70;;;;;;;18.46;100.00;-21182.44;4974178;28;20470;-73
2021/09/30 11:47:27;;;;;;;0.80;0.80;;;;;;;18.86;100.00;-21192.97;4972695;28;20443;-73
2021/09/30 11:49:56;;;;;;;0.80;0.70;;;;;;;18.44;100.00;-21181.88;4968704;28;20478;-73
2021/09/30 11:52:26;;;;;;;0.80;0.70;;;;;;;18.53;100.00;-21184.34;4971837;28;20429;-73
2021/09/30 11:54:53;;;;;;;1.00;0.80;;;;;;;19.03;100.00;-21197.78;4974027;28;20845;-73
2021/09/30 11:57:26;;;;;;;0.70;0.70;;;;;;;18.89;100.00;-21193.94;4988766;28;20406;-73
2021/09/30 12:00:07;;;;;;;0.70;0.60;;;;;;;19.20;100.00;-21202.16;4974308;28;20441;-73
2021/09/30 12:02:52;;;;;;;0.70;0.60;;;;;;;18.99;100.00;-21196.69;4959377;28;20813;-73
2021/09/30 12:05:20;;;;;;;0.70;0.60;;;;;;;18.53;100.00;-21184.34;4958790;28;20543;-73
2021/09/30 12:07:47;;;;;;;0.70;0.60;;;;;;;18.66;100.00;-21187.78;4958374;29;20423;-73
2021/09/30 12:10:15;;;;;;;0.70;0.60;;;;;;;18.61;100.00;-21186.41;4958350;28;20530;-73
2021/09/30 12:12:43;;;;;;;0.80;0.70;;;;;;;18.71;100.00;-21189.16;4958251;28;20798;-73
2021/09/30 12:15:10;;;;;;;0.80;0.70;;;;;;;18.87;100.00;-21193.25;4957164;29;20408;-73
2021/09/30 12:17:39;;;;;;;0.70;0.60;;;;;;;18.80;100.00;-21191.63;4972668;28;20934;-73
2021/09/30 12:20:08;;;;;;;0.70;0.60;;;;;;;19.08;100.00;-21199.00;4962360;28;20520;-73
2021/09/30 12:22:39;;;;;;;0.70;0.60;;;;;;;18.76;100.00;-21190.53;4976095;28;20434;-73
2021/09/30 12:25:09;;;;;;;0.70;0.60;;;;;;;18.80;100.00;-21191.63;4992655;28;20487;-73
2021/09/30 12:27:37;;;;;;;0.70;0.60;;;;;;;18.89;100.00;-21193.94;4977416;28;20410;-73
2021/09/30 12:30:09;;;;;;;0.70;0.60;;;;;;;18.87;100.00;-21193.41;4977471;28;20764;-73
2021/09/30 12:32:37;;;;;;;0.70;0.60;;;;;;;18.50;100.00;-21183.41;4975021;28;20551;-73
2021/09/30 12:35:07;;;;;;;0.80;0.70;;;;;;;18.18;100.00;-21174.91;4976048;28;20509;-72
2021/09/30 12:37:39;;;;;;;0.70;0.60;;;;;;;18.37;100.00;-21179.97;4976774;28;20485;-72
2021/09/30 12:40:12;;;;;;;0.70;0.60;;;;;;;18.47;100.00;-21182.56;4975832;28;21017;-72
2021/09/30 12:42:55;;;;;;;0.70;0.60;;;;;;;18.95;100.00;-21195.44;4975996;28;20418;-73
2021/09/30 12:45:22;;;;;;;0.70;0.63;;;;;;;18.80;100.00;-21191.63;4977345;28;20452;-73
2021/09/30 12:47:48;;;;;;;0.80;0.70;;;;;;;18.23;100.00;-21176.28;4975398;28;20840;-73
2021/09/30 12:50:17;;;;;;;0.73;0.67;;;;;;;18.57;100.00;-21185.44;4976693;28;20505;-73
2021/09/30 12:53:00;;;;;;;0.70;0.60;;;;;;;18.74;100.00;-21189.97;4975791;28;20489;-73
2021/09/30 12:55:29;;;;;;;0.70;0.70;;;;;;;18.81;100.00;-21191.75;4992018;28;20777;-73
2021/09/30 12:58:00;;;;;;;0.70;0.70;;;;;;;18.76;100.00;-21190.53;4972215;28;20505;-73
2021/09/30 13:00:34;;;;;;;0.70;0.60;;;;;;;18.66;100.00;-21187.63;4976685;28;20445;-73
2021/09/30 13:03:14;;;;;;;0.73;0.67;;;;;;;18.52;100.00;-21183.94;4987171;28;20517;-73
2021/09/30 13:05:46;;;;;;;0.70;0.67;;;;;;;17.88;100.00;-21166.69;4976832;28;20455;-73
2021/09/30 13:08:33;;;;;;;0.80;0.70;;;;;;;17.59;100.00;-21159.13;4972109;28;20514;-73
2021/09/30 13:11:22;;;;;;;0.80;0.70;;;;;;;17.86;100.00;-21166.41;4971466;28;20752;-73
2021/09/30 13:14:19;;;;;;;0.70;0.60;;;;;;;18.04;100.00;-21171.22;4972105;28;20444;-73
2021/09/30 13:16:49;;;;;;;0.80;0.70;;;;;;;18.07;100.00;-21171.88;4961362;28;20430;-73
2021/09/30 13:19:17;;;;;;;0.70;0.60;;;;;;;17.69;100.00;-21161.75;4976445;28;20456;-72
2021/09/30 13:21:55;;;;;;;0.70;0.60;;;;;;;18.07;100.00;-21172.03;4975288;28;20566;-73
2021/09/30 13:24:24;;;;;;;0.70;0.60;;;;;;;17.99;100.00;-21169.69;4976512;28;20538;-73
2021/09/30 13:26:52;;;;;;;0.80;0.70;;;;;;;17.41;100.00;-21154.06;4976460;28;20408;-73
2021/09/30 13:29:39;;;;;;;0.80;0.70;;;;;;;17.09;100.00;-21145.56;4974920;28;20465;-72
2021/09/30 13:32:06;;;;;;;0.80;0.60;;;;;;;17.17;100.00;-21147.75;4971300;28;20448;-73
2021/09/30 13:34:33;;;;;;;0.73;0.63;;;;;;;17.45;100.00;-21155.16;4982893;28;20458;-73
2021/09/30 13:37:00;;;;;;;0.70;0.60;;;;;;;17.30;100.00;-21151.31;4958127;28;20991;-73
2021/09/30 13:39:29;;;;;;;0.80;0.60;;;;;;;17.35;100.00;-21152.56;4958571;28;20468;-73
2021/09/30 13:41:56;;;;;;;0.80;0.60;;;;;;;17.10;100.00;-21145.84;4975856;28;20549;-73
2021/09/30 13:44:23;;;;;;;0.80;0.70;;;;;;;16.89;100.00;-21140.22;4974139;28;20915;-73
2021/09/30 13:46:50;;;;;;;0.90;0.90;;;;;;;16.64;100.00;-21133.50;4972154;28;21015;-73
2021/09/30 13:49:17;;;;;;;0.80;0.70;;;;;;;16.60;100.00;-21132.53;4975239;28;20445;-73
2021/09/30 13:51:44;;;;;;;0.77;0.70;;;;;;;16.51;100.00;-21129.91;4973851;28;20510;-73
2021/09/30 13:54:11;;;;;;;0.80;0.60;;;;;;;16.44;100.00;-21128.13;4973455;28;20518;-73
2021/09/30 13:56:40;;;;;;;1.00;0.90;;;;;;;16.34;100.00;-21125.53;4975534;28;20445;-73
2021/09/30 13:59:07;;;;;;;0.80;0.60;;;;;;;16.52;100.00;-21130.19;4975338;28;20470;-73
2021/09/30 14:01:54;;;;;;;0.70;0.60;;;;;;;16.75;100.00;-21136.50;4971886;28;20844;-73
2021/09/30 14:04:21;;;;;;;0.80;0.70;;;;;;;16.79;100.00;-21137.63;4975245;28;20937;-73
2021/09/30 14:06:49;;;;;;;0.80;0.70;;;;;;;16.80;100.00;-21137.88;4973964;28;20506;-73
2021/09/30 14:09:16;;;;;;;0.70;0.60;;;;;;;17.17;100.00;-21147.63;4974145;28;20681;-73
2021/09/30 14:11:44;;;;;;;0.80;0.70;;;;;;;17.41;100.00;-21154.06;4975340;28;20435;-73
2021/09/30 14:14:11;;;;;;;0.80;0.70;;;;;;;17.34;100.00;-21152.44;4974262;28;20435;-73
2021/09/30 14:16:39;;;;;;;0.70;0.70;;;;;;;17.21;100.00;-21148.84;4975111;28;20490;-73
2021/09/30 14:19:07;;;;;;;0.70;0.60;;;;;;;17.33;100.00;-21152.16;4973169;28;20427;-73
2021/09/30 14:21:34;;;;;;;0.73;0.70;;;;;;;17.70;100.00;-21162.03;4975272;28;20460;-73
2021/09/30 14:24:01;;;;;;;0.70;0.60;;;;;;;17.33;100.00;-21152.16;4989535;28;20448;-73
2021/09/30 14:26:28;;;;;;;0.80;0.70;;;;;;;17.20;100.00;-21148.44;4974343;28;20463;-73
2021/09/30 14:28:56;;;;;;;0.70;0.60;;;;;;;17.38;100.00;-21153.38;4974750;28;20448;-73
2021/09/30 14:31:23;;;;;;;0.80;0.70;;;;;;;17.31;100.00;-21151.59;4973732;28;20449;-73
2021/09/30 14:33:50;;;;;;;0.80;0.63;;;;;;;17.34;100.00;-21152.44;4958105;28;20432;-73